首页
METAR-TAF:

METAR-TAF

机场 :

St. George Municipal Airport

圣乔治, 犹他州, 美国

纬度: 37-05N, 经度: 113-36W, 海拔: 896米

当前天气观测

该预报发布于52分钟前的13:56 UTC
静风
温度 -2°C
湿度 50%
气压 1028 hPa
能見度: 16.1公里

METAR: KSGU 301356Z AUTO 00000KT 10SM M02/M11 A3037 RMK AO2 SLP293 T10171111 FZRANO $

时间: 07:48 (14:48 UTC)

预报

该预报发布于3小时和15分钟前的11:33 UTC
预报有效从30日的 12点(UTC)到 01日的 12点(UTC)
风速4节,风向多变
能見度: 10公里
少量云层高于20000英尺

TAF: KSGU 301133Z 3012/0112 VRB04KT P6SM FEW200

超过4000个机场的气象观测和天气预报(METAR&TAF报告)。

可查询的气象台以黄色和红色小点在地图上表示。

将鼠标移到小点上方,可查看气象台名称。

然后点击查看天气观测和预报。

如需切换地图:点击带黑十字的绿色按钮放大地图;点击带横线的绿色按钮缩小地图;或者点击绿色箭头查看邻近地区的地图。


METAR-TAF: